KLGF/LGF METAR and TAF weather

Enter ICAO airport designator
Station Type Date Time Source
KLGF METAR 2019/04/18 14:58 UTC NOAA

KLGF 181458Z AUTO 00000KT 10SM CLR 20/M01 A3007 RMK AO2 SLPNO T02031012 52019 $


Station Type Date Time Source
KLGF Decoded METAR 2019/04/18 14:58 UTC NOAA

Station name not available
Apr 18, 2019 - 10:58 AM EDT / 2019.04.18 1458 UTC
Wind: Calm:0
Visibility: 10 mile(s):0
Sky conditions: clear
Temperature: 68.5 F (20.3 C)
Dew Point: 29.8 F (-1.2 C)
Relative Humidity: 23%
Pressure (altimeter): 30.07 in. Hg (1018 hPa)
Pressure tendency: 0.06 inches (1.9 hPa) higher than three hours ago
ob: KLGF 181458Z AUTO 00000KT 10SM CLR 20/M01 A3007 RMK AO2 SLPNO T02031012 52019
cycle: 15

Station Type Date Time Source
KLGF TAF UTC NOAA

Error!

Example: see airport list